CheckWX is a tool to help pilots better visualize weather data.  It is not intended as a substitute for an official pre-flight weather briefing.

08:53:11 UTC

KDMW METAR
Carroll County Regional / Jack B Poage Field Airport
Westminster, Maryland, USA
Current

13 mins ago

KDMW 220840Z AUTO 00000KT 10SM SCT120 06/M08 A3024 RMK AO2
Observed
Feb-22 @ 08:40 UTC
Visibility
10 SM
Flight Rules
VFR
Cloud Levels
  • Scattered at 12,000' AGL
Temperature
C / 43°F
Dewpoint
-8°C / 18°F
Humidity
36%
Altimeter
30.24" Hg
Pressure
1024.02 hPa
Previous

33 mins ago

KDMW 220820Z AUTO 00000KT 10SM CLR 06/M07 A3023 RMK AO2
Observed
Feb-22 @ 08:20 UTC
Visibility
10 SM
Flight Rules
VFR
Cloud Levels
  • Clear skies
Temperature
C / 43°F
Dewpoint
-7°C / 19°F
Humidity
39%
Altimeter
30.23" Hg
Pressure
1023.72 hPa
Previous

53 mins ago

KDMW 220800Z AUTO 00000KT 10SM SCT090 07/M08 A3023 RMK AO2
Observed
Feb-22 @ 08:00 UTC
Visibility
10 SM
Flight Rules
VFR
Cloud Levels
  • Scattered at 9,000' AGL
Temperature
C / 45°F
Dewpoint
-8°C / 18°F
Humidity
34%
Altimeter
30.23" Hg
Pressure
1023.72 hPa